Time;durP1;ratioP1;P1;durP2;ratioP2;P2;SDS_P1;SDS_P2;PMS_P1;PMS_P2;Temp;Humidity;BMP_temperature;BMP_pressure;BME280_temperature;BME280_humidity;BME280_pressure;Samples;Min_cycle;Max_cycle;Signal;HPM_P1;HPM_P2
2022/04/18 00:00:24;;;;;;;18.60;13.57;;;;;;;13.99;33.50;101908.75;6339802;22;20017;-68
2022/04/18 00:02:51;;;;;;;16.98;12.43;;;;;;;13.94;33.39;101909.06;6312367;22;20345;-67
2022/04/18 00:05:18;;;;;;;15.13;12.30;;;;;;;13.91;33.47;101908.41;6339876;22;20014;-67
2022/04/18 00:07:45;;;;;;;20.42;12.05;;;;;;;13.89;33.49;101908.50;6339154;22;20449;-67
2022/04/18 00:10:12;;;;;;;17.92;12.68;;;;;;;13.86;33.57;101906.03;6339103;22;20094;-67
2022/04/18 00:12:39;;;;;;;17.15;12.40;;;;;;;13.81;33.53;101901.91;6339757;22;20011;-67
2022/04/18 00:15:06;;;;;;;16.02;12.32;;;;;;;13.78;33.67;101910.22;6339304;22;20038;-67
2022/04/18 00:17:33;;;;;;;18.23;12.43;;;;;;;13.75;33.57;101908.59;6339088;22;20041;-68
2022/04/18 00:19:59;;;;;;;15.35;12.20;;;;;;;13.72;33.59;101905.22;6339272;22;20014;-68
2022/04/18 00:22:26;;;;;;;14.27;11.73;;;;;;;13.69;33.71;101900.91;6339427;22;20436;-68
2022/04/18 00:24:52;;;;;;;15.48;12.20;;;;;;;13.66;33.79;101904.66;6339550;22;20024;-65
2022/04/18 00:27:19;;;;;;;15.27;11.95;;;;;;;13.65;33.87;101893.97;6338915;22;20048;-68
2022/04/18 00:29:47;;;;;;;22.90;13.32;;;;;;;13.63;34.06;101899.47;6339169;22;20094;-68
2022/04/18 00:32:16;;;;;;;14.98;12.10;;;;;;;13.62;33.97;101899.59;6339528;22;20085;-67
2022/04/18 00:34:43;;;;;;;15.60;12.18;;;;;;;13.59;34.03;101897.09;6311836;22;20387;-67
2022/04/18 00:37:16;;;;;;;15.35;11.75;;;;;;;13.55;34.06;101901.81;6338632;22;20087;-67
2022/04/18 00:39:46;;;;;;;14.20;10.82;;;;;;;13.50;34.24;101892.31;6339244;22;20015;-67
2022/04/18 00:42:12;;;;;;;13.52;10.32;;;;;;;13.45;34.22;101900.72;6339541;22;20011;-66
2022/04/18 00:44:39;;;;;;;14.32;11.18;;;;;;;13.40;34.16;101886.66;6311811;22;20329;-67
2022/04/18 00:47:06;;;;;;;13.23;10.80;;;;;;;13.35;34.19;101886.94;6311284;22;20088;-67
2022/04/18 00:49:34;;;;;;;13.40;10.70;;;;;;;13.32;34.22;101891.66;6311632;22;20371;-67
2022/04/18 00:52:03;;;;;;;11.98;10.48;;;;;;;13.27;34.34;101885.69;6339305;22;20011;-66
2022/04/18 00:54:32;;;;;;;15.13;10.25;;;;;;;13.22;34.31;101891.41;6311894;22;20023;-67
2022/04/18 00:56:59;;;;;;;12.10;9.73;;;;;;;13.21;34.41;101886.97;6310553;22;20345;-66
2022/04/18 00:59:26;;;;;;;11.23;8.68;;;;;;;13.18;34.58;101884.47;6311692;22;20344;-65
2022/04/18 01:01:53;;;;;;;11.20;8.02;;;;;;;13.16;34.44;101883.69;6311466;22;20444;-66
2022/04/18 01:04:20;;;;;;;10.52;7.55;;;;;;;13.13;34.38;101886.56;6310984;22;20336;-66
2022/04/18 01:06:47;;;;;;;11.93;8.00;;;;;;;13.12;34.47;101876.75;6311106;22;20018;-65
2022/04/18 01:09:14;;;;;;;11.88;8.13;;;;;;;13.13;34.50;101883.88;6339361;22;20085;-66
2022/04/18 01:11:41;;;;;;;11.23;8.40;;;;;;;13.09;34.56;101870.69;6338936;22;20038;-67
2022/04/18 01:14:27;;;;;;;8.73;7.60;;;;;;;13.04;34.55;101879.09;6310694;22;20068;-66
2022/04/18 01:17:02;;;;;;;;;;;;;;;12.99;34.58;101873.13;6339080;22;20012;-66
2022/04/18 01:19:44;;;;;;;9.90;7.35;;;;;;;12.99;34.49;101870.44;6338821;22;19914;-67
2022/04/18 01:22:30;;;;;;;10.52;7.30;;;;;;;12.93;34.59;101873.53;6316156;22;20502;-66
2022/04/18 01:31:00;;;;;;;8.43;6.90;;;;;;;12.82;34.79;101865.25;6311104;22;20077;-66
2022/04/18 01:33:28;;;;;;;7.90;6.25;;;;;;;12.78;34.88;101861.91;6311176;22;20169;-65
2022/04/18 01:35:55;;;;;;;7.22;6.30;;;;;;;12.77;34.99;101865.56;6285195;22;20025;-66
2022/04/18 01:38:29;;;;;;;8.93;5.70;;;;;;;12.75;35.16;101863.94;6310718;22;20019;-66
2022/04/18 01:40:56;;;;;;;7.20;5.95;;;;;;;12.73;35.09;101867.59;6310829;22;20045;-66
2022/04/18 01:43:22;;;;;;;6.40;5.55;;;;;;;12.75;35.17;101869.31;6311013;22;20022;-67
2022/04/18 01:45:50;;;;;;;8.77;5.57;;;;;;;12.75;35.14;101869.31;6310603;22;20015;-67
2022/04/18 01:48:23;;;;;;;6.85;5.25;;;;;;;12.77;35.12;101864.69;6311142;22;20015;-66
2022/04/18 01:50:50;;;;;;;8.75;5.47;;;;;;;12.79;35.15;101860.06;6311017;22;20023;-66
2022/04/18 01:53:17;;;;;;;7.97;5.70;;;;;;;12.79;35.14;101862.75;6338500;22;20025;-65
2022/04/18 01:55:44;;;;;;;6.88;5.40;;;;;;;12.77;35.06;101859.31;6311278;22;20093;-66
2022/04/18 01:58:10;;;;;;;9.27;5.20;;;;;;;12.76;35.05;101858.44;6311268;22;20462;-66
2022/04/18 02:00:37;;;;;;;8.43;5.50;;;;;;;12.76;35.20;101857.56;6310867;22;20065;-67
2022/04/18 02:03:04;;;;;;;6.75;5.00;;;;;;;12.76;35.18;101857.56;6310941;22;20015;-66
2022/04/18 02:05:31;;;;;;;6.90;5.38;;;;;;;12.72;34.90;101855.06;6311367;22;20049;-67
2022/04/18 02:07:58;;;;;;;6.65;5.40;;;;;;;12.68;35.12;101849.97;6285565;22;20102;-67
2022/04/18 02:10:25;;;;;;;6.85;4.97;;;;;;;12.62;35.17;101843.13;6311212;22;20029;-66
2022/04/18 02:12:52;;;;;;;6.82;4.72;;;;;;;12.58;35.22;101856.88;6338813;22;20017;-68
2022/04/18 02:15:19;;;;;;;6.88;5.07;;;;;;;12.56;35.13;101856.97;6310599;22;20018;-66
2022/04/18 02:17:56;;;;;;;6.72;5.03;;;;;;;12.52;35.07;101849.19;6311449;22;20349;-67
2022/04/18 02:20:23;;;;;;;9.63;5.20;;;;;;;12.48;35.17;101845.81;6338648;22;20015;-65
2022/04/18 02:22:50;;;;;;;7.00;4.97;;;;;;;12.44;35.14;101849.66;6338821;22;20079;-66
2022/04/18 02:25:16;;;;;;;6.95;4.70;;;;;;;12.38;35.22;101842.84;6309796;22;20069;-67
2022/04/18 02:27:43;;;;;;;6.25;5.00;;;;;;;12.33;35.16;101844.97;6310935;22;20019;-67
2022/04/18 02:30:11;;;;;;;6.13;4.88;;;;;;;12.26;35.32;101840.91;6338322;22;20035;-67
2022/04/18 02:32:50;;;;;;;4.88;4.38;;;;;;;12.21;35.27;101845.72;6310648;22;20041;-66
2022/04/18 02:35:21;;;;;;;5.88;4.30;;;;;;;12.17;35.24;101846.00;6338160;22;20014;-67
2022/04/18 02:37:50;;;;;;;4.72;3.85;;;;;;;12.13;35.35;101839.94;6311100;22;20019;-67
2022/04/18 02:40:22;;;;;;;7.35;4.43;;;;;;;12.08;35.35;101844.75;6310928;22;20038;-65
2022/04/18 02:42:51;;;;;;;5.07;3.85;;;;;;;12.06;35.42;101841.28;6311070;22;20022;-67
2022/04/18 02:45:21;;;;;;;4.72;3.70;;;;;;;12.04;35.39;101837.81;6310585;22;20023;-67
2022/04/18 02:48:09;;;;;;;4.45;3.72;;;;;;;12.00;35.39;101842.53;6311005;22;20025;-67
2022/04/18 02:50:39;;;;;;;6.50;3.72;;;;;;;11.95;35.52;101841.94;6310702;22;20445;-66
2022/04/18 02:53:06;;;;;;;10.23;4.25;;;;;;;11.91;35.50;101844.91;6312086;22;20019;-66
2022/04/18 02:55:50;;;;;;;5.25;4.00;;;;;;;11.83;35.57;101836.41;6312753;22;20022;-67
2022/04/18 02:58:21;;;;;;;7.22;3.83;;;;;;;11.74;35.67;101835.09;6312837;22;20064;-65
2022/04/18 03:00:48;;;;;;;5.55;4.18;;;;;;;11.65;35.77;101830.28;6340243;22;20344;-66
2022/04/18 03:03:15;;;;;;;4.20;3.75;;;;;;;11.58;35.91;101832.47;6312397;22;20047;-67
2022/04/18 03:05:43;;;;;;;4.38;3.80;;;;;;;11.53;35.84;101829.19;6340222;22;20018;-67
2022/04/18 03:08:10;;;;;;;7.13;5.10;;;;;;;11.48;35.99;101833.97;6312662;22;20023;-66
2022/04/18 03:13:26;;;;;;;5.88;4.13;;;;;;;11.35;36.34;101824.91;6339220;22;20101;-66
2022/04/18 03:15:54;;;;;;;5.28;3.95;;;;;;;11.29;36.41;101822.56;6312618;22;20041;-65
2022/04/18 03:18:21;;;;;;;5.07;3.92;;;;;;;11.25;36.41;101821.00;6312639;22;20019;-65
2022/04/18 03:20:48;;;;;;;6.95;4.35;;;;;;;11.23;36.36;101825.63;6340247;22;20045;-65
2022/04/18 03:23:15;;;;;;;6.85;3.95;;;;;;;11.22;36.61;101816.69;6286658;22;20015;-65
2022/04/18 03:26:06;;;;;;;5.50;4.25;;;;;;;11.24;36.55;101813.91;6281970;22;20022;-66
2022/04/18 03:28:53;;;;;;;4.93;4.10;;;;;;;11.25;36.53;101818.31;6320072;22;20361;-65
2022/04/18 03:31:20;;;;;;;5.00;3.92;;;;;;;11.21;36.54;101808.69;6311996;22;20019;-65
2022/04/18 03:33:47;;;;;;;4.40;4.00;;;;;;;11.18;36.64;101815.13;6339626;22;20015;-66
2022/04/18 03:41:46;;;;;;;4.88;3.58;;;;;;;11.10;36.78;101807.47;6339780;22;20015;-66
2022/04/18 03:44:14;;;;;;;6.10;4.05;;;;;;;11.08;36.69;101806.69;6311959;22;20014;-65
2022/04/18 03:46:41;;;;;;;6.43;3.85;;;;;;;11.08;36.92;101808.50;6312208;22;20375;-65
2022/04/18 03:49:07;;;;;;;7.05;4.32;;;;;;;11.05;36.98;101809.56;6312448;22;20019;-65
2022/04/18 03:51:36;;;;;;;6.18;4.05;;;;;;;11.03;36.90;101815.97;6311930;22;20101;-64
2022/04/18 03:54:05;;;;;;;6.38;4.00;;;;;;;11.01;37.10;101807.13;6312219;22;20110;-65
2022/04/18 03:56:34;;;;;;;5.25;3.80;;;;;;;11.00;36.99;101805.41;6312237;22;20011;-65
2022/04/18 03:59:07;;;;;;;6.00;4.60;;;;;;;10.97;37.18;101802.91;6340330;22;20023;-65
2022/04/18 04:01:45;;;;;;;5.85;3.90;;;;;;;10.94;37.14;101811.13;6312135;22;20073;-66
2022/04/18 04:04:12;;;;;;;6.28;4.38;;;;;;;10.89;37.18;101806.03;6311576;22;20415;-65
2022/04/18 04:06:39;;;;;;;6.00;3.92;;;;;;;10.84;37.19;101800.03;6339692;22;20060;-66
2022/04/18 04:09:07;;;;;;;5.07;4.30;;;;;;;10.81;37.33;101803.78;6312184;22;20506;-65
2022/04/18 04:11:34;;;;;;;5.80;3.88;;;;;;;10.81;37.26;101801.09;6311038;22;20059;-65
2022/04/18 04:14:02;;;;;;;5.38;4.47;;;;;;;10.80;37.38;101799.34;6310791;22;20025;-66
2022/04/18 04:16:30;;;;;;;7.38;5.28;;;;;;;10.78;37.44;101803.09;6312030;22;20019;-66
2022/04/18 04:19:00;;;;;;;4.97;3.83;;;;;;;10.74;37.50;101799.69;6312076;22;20014;-66
2022/04/18 04:21:27;;;;;;;4.43;4.00;;;;;;;10.70;37.38;101800.81;6311878;22;20018;-67
2022/04/18 04:23:56;;;;;;;5.97;4.55;;;;;;;10.66;37.52;101803.78;6286695;22;20333;-66
2022/04/18 04:26:26;;;;;;;7.07;4.40;;;;;;;10.59;37.56;101805.06;6313199;22;20030;-66
2022/04/18 04:28:53;;;;;;;5.55;4.40;;;;;;;10.55;37.69;101803.50;6339730;22;20015;-66
2022/04/18 04:31:30;;;;;;;5.15;4.05;;;;;;;10.49;37.81;101813.63;6311496;22;20071;-67
2022/04/18 04:33:59;;;;;;;5.75;4.20;;;;;;;10.46;37.83;101805.75;6311633;22;20391;-67
2022/04/18 04:36:27;;;;;;;5.07;4.30;;;;;;;10.43;37.64;101808.59;6339546;22;20022;-66
2022/04/18 04:38:56;;;;;;;5.38;4.22;;;;;;;10.38;37.77;101810.66;6311786;22;20014;-67
2022/04/18 04:41:43;;;;;;;6.55;4.80;;;;;;;10.29;37.78;101815.66;6311633;22;20070;-66
2022/04/18 04:44:10;;;;;;;8.65;4.30;;;;;;;10.24;37.81;101812.34;6311514;22;20036;-65
2022/04/18 04:46:57;;;;;;;5.50;4.13;;;;;;;10.19;37.92;101818.81;6338491;22;20030;-66
2022/04/18 04:49:26;;;;;;;4.40;3.90;;;;;;;10.15;37.85;101814.56;6339273;22;20038;-66
2022/04/18 04:52:12;;;;;;;5.20;4.00;;;;;;;10.11;38.15;101806.75;6339596;22;20349;-66
2022/04/18 04:54:40;;;;;;;5.03;4.20;;;;;;;10.08;38.03;101813.16;6311309;22;20325;-67
2022/04/18 04:57:10;;;;;;;7.38;4.18;;;;;;;10.04;38.17;101814.25;6311723;22;20093;-66
2022/04/18 05:00:06;;;;;;;5.85;4.88;;;;;;;10.04;38.29;101818.75;6339098;22;20037;-67
2022/04/18 05:02:56;;;;;;;5.28;4.57;;;;;;;10.04;38.42;101819.63;6338914;22;20022;-65
2022/04/18 05:05:23;;;;;;;7.80;4.18;;;;;;;10.02;38.39;101813.47;6311513;22;20011;-66
2022/04/18 05:07:51;;;;;;;6.78;4.38;;;;;;;10.04;38.34;101814.25;6311435;22;20022;-67
2022/04/18 05:10:19;;;;;;;5.28;4.03;;;;;;;10.05;38.53;101809.75;6311035;22;20019;-66
2022/04/18 05:12:47;;;;;;;6.45;4.25;;;;;;;10.09;38.45;101812.19;6311481;22;20456;-65
2022/04/18 05:15:14;;;;;;;5.50;3.85;;;;;;;10.14;38.58;101810.13;6285203;22;20094;-66
2022/04/18 05:18:17;;;;;;;5.80;4.57;;;;;;;10.23;38.51;101821.34;6311445;22;20014;-66
2022/04/18 05:20:46;;;;;;;12.10;4.60;;;;;;;10.29;38.59;101815.66;6310569;22;20022;-65
2022/04/18 05:23:20;;;;;;;7.05;4.63;;;;;;;10.32;38.59;101816.34;6286027;22;20056;-66
2022/04/18 05:25:48;;;;;;;6.88;4.40;;;;;;;10.37;38.56;101821.47;6286422;22;20022;-65
2022/04/18 05:28:15;;;;;;;8.73;4.60;;;;;;;10.41;38.83;101823.06;6311350;22;20052;-67
2022/04/18 05:30:47;;;;;;;5.10;4.45;;;;;;;10.46;38.60;101818.31;6310963;22;20444;-67
2022/04/18 05:33:14;;;;;;;6.10;4.40;;;;;;;10.53;38.72;101824.22;6311744;22;20064;-67
2022/04/18 05:36:10;;;;;;;4.65;3.85;;;;;;;10.61;38.62;101816.59;6314278;22;20105;-66
2022/04/18 05:38:37;;;;;;;7.00;4.97;;;;;;;10.67;38.59;101816.25;6311367;22;20019;-65
2022/04/18 05:41:17;;;;;;;6.63;4.63;;;;;;;10.75;38.68;101822.06;6339171;22;20348;-66
2022/04/18 05:43:49;;;;;;;5.70;4.18;;;;;;;10.82;38.76;101827.00;6311163;22;20025;-66
2022/04/18 05:46:19;;;;;;;7.25;4.68;;;;;;;10.90;38.68;101828.38;6286600;22;20011;-66
2022/04/18 05:48:48;;;;;;;6.90;5.03;;;;;;;10.97;38.62;101825.25;6339017;22;20019;-66
2022/04/18 05:51:14;;;;;;;5.45;3.92;;;;;;;11.04;38.57;101828.47;6311140;22;20046;-66
2022/04/18 05:53:43;;;;;;;6.28;3.78;;;;;;;11.11;38.47;101824.47;6317146;22;20021;-66
2022/04/18 05:56:19;;;;;;;5.85;4.18;;;;;;;11.19;38.59;101822.22;6312406;22;20030;-67
2022/04/18 05:58:53;;;;;;;4.35;3.75;;;;;;;11.27;38.61;101827.16;6311322;22;20033;-66
2022/04/18 06:01:38;;;;;;;7.78;3.95;;;;;;;11.36;38.55;101823.94;6339203;22;20023;-66
2022/04/18 06:04:10;;;;;;;5.55;4.18;;;;;;;11.45;38.68;101829.63;6311241;22;20018;-67
2022/04/18 06:06:41;;;;;;;5.72;3.95;;;;;;;11.55;38.73;101829.09;6285916;22;20097;-66
2022/04/18 06:09:08;;;;;;;7.45;4.32;;;;;;;11.65;38.67;101827.59;6338669;22;20026;-66
2022/04/18 06:11:35;;;;;;;5.80;4.25;;;;;;;11.75;38.52;101828.75;6311115;22;20068;-66
2022/04/18 06:14:15;;;;;;;5.55;4.43;;;;;;;11.86;38.63;101829.00;6311249;22;20015;-66
2022/04/18 06:16:45;;;;;;;7.60;4.65;;;;;;;11.98;38.56;101820.22;6310716;22;20049;-67
2022/04/18 06:19:15;;;;;;;6.00;4.90;;;;;;;12.12;38.74;101830.13;6311111;22;20026;-66
2022/04/18 06:21:42;;;;;;;5.32;3.92;;;;;;;12.27;38.67;101818.41;6310975;22;20015;-66
2022/04/18 06:24:10;;;;;;;5.72;3.80;;;;;;;12.45;38.67;101818.22;6285579;22;20068;-66
2022/04/18 06:26:57;;;;;;;5.38;3.70;;;;;;;12.63;38.54;101820.63;6312099;22;20018;-67
2022/04/18 06:29:25;;;;;;;7.25;3.90;;;;;;;12.82;38.64;101816.75;6313070;22;20072;-67
2022/04/18 06:31:53;;;;;;;5.72;3.90;;;;;;;13.01;38.11;101819.97;6312831;22;20419;-66
2022/04/18 06:34:22;;;;;;;7.40;4.20;;;;;;;13.18;38.10;101818.88;6313062;22;20019;-66
2022/04/18 06:36:50;;;;;;;4.97;4.03;;;;;;;13.33;37.88;101820.53;6340111;22;20022;-67
2022/04/18 06:39:45;;;;;;;5.47;3.85;;;;;;;13.53;37.90;101824.63;6272038;22;20030;-67
2022/04/18 06:42:26;;;;;;;8.50;3.97;;;;;;;13.68;37.53;101829.84;6290638;22;20019;-67
2022/04/18 06:44:59;;;;;;;6.40;4.15;;;;;;;13.84;37.48;101826.94;6340241;22;20448;-66
2022/04/18 06:47:26;;;;;;;8.48;3.95;;;;;;;13.96;37.19;101836.03;6340380;22;20049;-68
2022/04/18 06:50:11;;;;;;;5.15;3.83;;;;;;;14.10;36.82;101830.53;6339805;22;20019;-67
2022/04/18 06:52:56;;;;;;;6.32;3.60;;;;;;;14.25;36.65;101834.03;6317667;22;20080;-67
2022/04/18 06:58:58;;;;;;;4.45;3.28;;;;;;;14.66;36.40;101828.38;6332302;22;20034;-66
2022/04/18 07:01:27;;;;;;;6.15;3.47;;;;;;;14.84;36.30;101834.28;6312270;22;20411;-66
2022/04/18 07:03:54;;;;;;;5.35;3.40;;;;;;;15.06;36.09;101834.47;6312374;22;20075;-66
2022/04/18 07:06:20;;;;;;;4.53;3.85;;;;;;;15.32;36.20;101831.66;6312661;22;20015;-65
2022/04/18 07:08:47;;;;;;;5.07;3.70;;;;;;;15.52;35.91;101829.16;6339997;22;20025;-66
2022/04/18 07:11:42;;;;;;;5.90;3.58;;;;;;;15.77;35.76;101833.63;6333841;22;20072;-66
2022/04/18 07:14:08;;;;;;;5.22;3.38;;;;;;;16.07;35.71;101829.50;6312732;22;20021;-66
2022/04/18 07:16:35;;;;;;;5.00;3.63;;;;;;;16.36;35.53;101838.91;6312182;22;20080;-65
2022/04/18 07:19:02;;;;;;;3.90;3.47;;;;;;;16.56;35.22;101821.06;6312657;22;20023;-66
2022/04/18 07:21:30;;;;;;;4.60;3.05;;;;;;;16.74;35.25;101827.72;6312465;22;20015;-66
2022/04/18 07:23:59;;;;;;;6.35;3.53;;;;;;;16.89;34.83;101820.19;6312652;22;20015;-66
2022/04/18 07:26:25;;;;;;;7.75;3.58;;;;;;;17.11;34.87;101827.44;6312600;22;20336;-67
2022/04/18 07:28:53;;;;;;;5.68;3.65;;;;;;;17.40;34.68;101825.00;6312203;22;20019;-67
2022/04/18 07:31:19;;;;;;;7.00;3.15;;;;;;;17.57;34.21;101829.88;6312391;22;20015;-65
2022/04/18 07:33:48;;;;;;;3.63;3.05;;;;;;;17.72;34.24;101819.56;6312436;22;20340;-66
2022/04/18 07:36:18;;;;;;;6.90;3.22;;;;;;;17.90;34.00;101823.47;6312178;22;20029;-66
2022/04/18 07:38:51;;;;;;;4.63;3.33;;;;;;;18.02;33.81;101813.38;6312064;22;20018;-66
2022/04/18 07:41:28;;;;;;;3.83;2.90;;;;;;;18.13;33.49;101816.00;6339669;22;20023;-66
2022/04/18 07:43:58;;;;;;;3.92;2.83;;;;;;;18.23;33.25;101814.22;6311992;22;20014;-65
2022/04/18 07:46:30;;;;;;;3.92;2.97;;;;;;;18.33;33.11;101814.25;6312039;22;20378;-65
2022/04/18 07:49:11;;;;;;;6.53;3.30;;;;;;;18.44;32.69;101806.00;6339901;22;20041;-64
2022/04/18 07:51:43;;;;;;;4.80;3.05;;;;;;;18.55;32.67;101796.88;6312049;22;20058;-64
2022/04/18 07:54:31;;;;;;;3.42;2.85;;;;;;;18.64;32.43;101807.00;6312042;22;20344;-64
2022/04/18 07:56:59;;;;;;;4.90;2.80;;;;;;;18.74;32.00;101810.63;6312093;22;20010;-64
2022/04/18 07:59:36;;;;;;;3.78;2.85;;;;;;;18.85;32.11;101805.06;6311854;22;20055;-64
2022/04/18 08:02:08;;;;;;;4.25;3.10;;;;;;;18.95;31.46;101803.22;6312294;22;20011;-64
2022/04/18 08:04:55;;;;;;;3.78;2.88;;;;;;;19.09;31.54;101801.09;6316866;22;20030;-64
2022/04/18 08:07:33;;;;;;;5.47;2.85;;;;;;;19.26;31.35;101798.53;6312079;22;20021;-65
2022/04/18 08:09:59;;;;;;;3.72;2.90;;;;;;;19.46;31.52;101793.13;6286217;22;20045;-65
2022/04/18 08:12:26;;;;;;;4.07;3.03;;;;;;;19.62;31.05;101796.16;6339929;22;20015;-64
2022/04/18 08:15:11;;;;;;;3.65;2.88;;;;;;;19.74;31.05;101800.44;6339748;22;20118;-65
2022/04/18 08:17:38;;;;;;;4.93;3.03;;;;;;;19.89;30.45;101799.00;6310878;22;20019;-65
2022/04/18 08:20:06;;;;;;;5.15;3.17;;;;;;;20.04;30.61;101799.38;6311154;22;20098;-65
2022/04/18 08:22:32;;;;;;;5.07;2.78;;;;;;;20.14;30.20;101794.78;6311853;22;20019;-65
2022/04/18 08:25:17;;;;;;;3.22;2.92;;;;;;;20.23;30.24;101806.69;6339928;22;20034;-67
2022/04/18 08:28:02;;;;;;;3.67;2.70;;;;;;;20.35;30.29;101807.38;6338395;22;20033;-65
2022/04/18 08:30:34;;;;;;;4.00;2.33;;;;;;;20.59;29.96;101808.59;6311803;22;20018;-65
2022/04/18 08:33:25;;;;;;;4.50;2.67;;;;;;;20.92;29.81;101806.28;6312154;22;20095;-65
2022/04/18 08:35:52;;;;;;;3.58;2.40;;;;;;;21.14;29.58;101802.25;6311866;22;20067;-65
2022/04/18 08:38:19;;;;;;;5.78;2.50;;;;;;;21.34;29.45;101803.84;6311810;22;20453;-65
2022/04/18 08:41:22;;;;;;;4.00;2.58;;;;;;;21.38;28.63;101798.94;6243971;22;20103;-65
2022/04/18 08:43:49;;;;;;;3.70;2.35;;;;;;;21.42;28.67;101794.88;6293713;22;20101;-64
2022/04/18 08:46:17;;;;;;;2.38;2.17;;;;;;;21.54;28.46;101799.94;6311605;22;20022;-65
2022/04/18 08:54:17;;;;;;;6.13;2.92;;;;;;;21.97;28.16;101787.31;6311782;22;20440;-65
2022/04/18 08:56:44;;;;;;;4.03;2.85;;;;;;;22.08;27.83;101788.97;6285954;22;20019;-65
2022/04/18 08:59:11;;;;;;;3.63;2.65;;;;;;;22.14;27.66;101785.59;6338993;22;20349;-64
2022/04/18 09:01:50;;;;;;;6.63;2.90;;;;;;;22.17;26.92;101783.38;6339026;22;20015;-65
2022/04/18 09:04:28;;;;;;;5.38;2.63;;;;;;;22.23;27.18;101787.34;6311677;22;20084;-65
2022/04/18 09:06:55;;;;;;;4.25;2.78;;;;;;;22.19;27.18;101781.34;6339183;22;20025;-65
2022/04/18 09:09:28;;;;;;;4.18;3.03;;;;;;;22.14;26.83;101777.38;6286367;22;20027;-64
2022/04/18 09:12:20;;;;;;;3.53;2.75;;;;;;;22.19;26.78;101775.00;6311668;22;20011;-65
2022/04/18 09:15:12;;;;;;;4.28;2.75;;;;;;;22.27;26.83;101766.84;6311464;22;20015;-65
2022/04/18 09:17:41;;;;;;;3.97;2.55;;;;;;;22.26;26.86;101772.50;6311760;22;20018;-65
2022/04/18 09:20:40;;;;;;;5.28;2.80;;;;;;;22.28;26.69;101763.09;6326316;22;20029;-65
2022/04/18 09:23:18;;;;;;;6.55;2.50;;;;;;;22.32;26.43;101772.72;6339314;22;20006;-64
2022/04/18 09:25:44;;;;;;;4.43;2.78;;;;;;;22.37;26.46;101767.63;6311511;22;20097;-65
2022/04/18 09:28:11;;;;;;;5.95;2.85;;;;;;;22.42;26.35;101764.38;6311070;22;20019;-65
2022/04/18 09:30:38;;;;;;;4.50;2.60;;;;;;;22.45;25.95;101761.31;6311075;22;20025;-65
2022/04/18 09:33:06;;;;;;;2.75;2.30;;;;;;;22.47;25.63;101759.28;6311418;22;20041;-65
2022/04/18 09:35:44;;;;;;;7.38;2.95;;;;;;;22.55;25.72;101759.31;6311606;22;20094;-65
2022/04/18 09:38:11;;;;;;;3.33;2.40;;;;;;;22.71;26.08;101753.03;6285326;22;20084;-65
2022/04/18 09:40:57;;;;;;;6.45;3.38;;;;;;;22.90;25.86;101762.88;6338955;22;20029;-65
2022/04/18 09:43:40;;;;;;;3.58;2.72;;;;;;;23.06;26.02;101757.47;6311578;22;20014;-65
2022/04/18 09:46:10;;;;;;;4.32;2.47;;;;;;;23.25;26.03;101751.69;6311162;22;20437;-65
2022/04/18 09:48:44;;;;;;;2.83;2.40;;;;;;;23.41;25.87;101754.44;6287122;22;20022;-65
2022/04/18 09:51:12;;;;;;;5.05;2.72;;;;;;;23.58;25.87;101752.56;6310273;22;20348;-65
2022/04/18 09:53:46;;;;;;;4.60;2.70;;;;;;;23.61;25.56;101751.38;6311165;22;20093;-66
2022/04/18 09:56:15;;;;;;;4.07;2.60;;;;;;;23.64;25.03;101746.41;6339190;22;20090;-65
2022/04/18 09:58:42;;;;;;;3.25;2.35;;;;;;;23.70;24.89;101742.09;6339096;22;20042;-65
2022/04/18 10:01:30;;;;;;;4.70;2.53;;;;;;;23.75;25.14;101747.94;6338983;22;20018;-64
2022/04/18 10:03:57;;;;;;;4.25;2.28;;;;;;;23.84;25.16;101743.31;6340672;22;20380;-65
2022/04/18 10:06:25;;;;;;;3.70;2.70;;;;;;;23.96;24.48;101740.03;6313610;22;20440;-65
2022/04/18 10:08:52;;;;;;;3.78;2.53;;;;;;;24.02;24.26;101736.59;6340670;22;20433;-65
2022/04/18 10:11:22;;;;;;;3.10;2.35;;;;;;;24.02;23.93;101736.59;6342142;22;20015;-65
2022/04/18 10:13:49;;;;;;;4.82;2.38;;;;;;;23.98;23.70;101737.13;6340886;22;20021;-65
2022/04/18 10:16:18;;;;;;;2.75;2.08;;;;;;;23.97;23.70;101732.66;6340503;22;20007;-65
2022/04/18 10:18:56;;;;;;;4.75;2.25;;;;;;;24.08;23.93;101729.53;6340375;22;20030;-65
2022/04/18 10:21:30;;;;;;;2.60;2.20;;;;;;;24.18;22.93;101734.84;6340523;22;20016;-65
2022/04/18 10:24:15;;;;;;;3.78;2.40;;;;;;;24.22;23.32;101719.72;6340679;22;20017;-65
2022/04/18 10:27:17;;;;;;;4.20;2.33;;;;;;;24.36;22.97;101722.63;6312604;22;20504;-66
2022/04/18 10:29:51;;;;;;;5.35;2.17;;;;;;;24.45;22.99;101720.69;6340150;22;20017;-67
2022/04/18 10:32:22;;;;;;;4.32;2.53;;;;;;;24.50;22.68;101718.25;6340375;22;20101;-65
2022/04/18 10:34:51;;;;;;;2.65;2.17;;;;;;;24.52;22.85;101718.94;6340854;22;20064;-66
2022/04/18 10:37:22;;;;;;;3.70;2.47;;;;;;;24.59;22.87;101719.97;6340280;22;20023;-66
2022/04/18 10:40:01;;;;;;;3.72;2.15;;;;;;;24.69;22.73;101711.50;6340598;22;20038;-65
2022/04/18 10:42:32;;;;;;;3.38;2.20;;;;;;;24.80;22.44;101712.97;6340852;22;20037;-65
2022/04/18 10:45:06;;;;;;;3.00;1.88;;;;;;;24.86;22.42;101709.50;6340216;22;20034;-66
2022/04/18 10:48:09;;;;;;;2.50;2.03;;;;;;;25.06;22.41;101705.28;6339280;22;20101;-66
2022/04/18 10:50:43;;;;;;;3.17;2.30;;;;;;;25.27;22.53;101708.22;6183863;23;20013;-66
2022/04/18 10:53:19;;;;;;;3.72;2.67;;;;;;;25.40;22.50;101706.75;6318743;22;20015;-65
2022/04/18 10:55:52;;;;;;;3.65;2.67;;;;;;;25.49;22.39;101708.38;6340053;22;20021;-66
2022/04/18 10:58:21;;;;;;;2.90;2.28;;;;;;;25.57;21.79;101705.56;6340713;22;20034;-65
2022/04/18 11:00:57;;;;;;;4.35;2.30;;;;;;;25.62;21.81;101697.59;6339859;22;20014;-66
2022/04/18 11:03:46;;;;;;;5.03;3.00;;;;;;;25.70;21.79;101696.69;6340227;22;20022;-66
2022/04/18 11:06:16;;;;;;;7.30;2.88;;;;;;;25.76;21.55;101693.19;6339124;22;20015;-66
2022/04/18 11:09:00;;;;;;;3.90;2.65;;;;;;;25.76;21.02;101693.19;6340150;22;20034;-66
2022/04/18 11:11:46;;;;;;;2.75;2.20;;;;;;;25.74;20.77;101687.88;6339883;22;20036;-66
2022/04/18 11:14:16;;;;;;;2.67;2.30;;;;;;;25.70;21.10;101689.31;6340172;22;20015;-66
2022/04/18 11:16:42;;;;;;;3.78;2.38;;;;;;;25.76;21.14;101691.31;6339830;22;20340;-66
2022/04/18 11:19:20;;;;;;;3.10;2.13;;;;;;;25.73;21.07;101674.31;6340260;22;20068;-66
2022/04/18 11:22:04;;;;;;;3.28;2.22;;;;;;;25.69;20.78;101682.09;6340219;22;20018;-65
2022/04/18 11:24:49;;;;;;;3.05;2.30;;;;;;;25.74;20.65;101673.28;6339971;22;20015;-67
2022/04/18 11:27:27;;;;;;;2.92;2.45;;;;;;;25.79;20.79;101668.06;6339220;22;20011;-66
2022/04/18 11:30:03;;;;;;;2.88;2.03;;;;;;;25.81;20.70;101666.81;6339448;22;20018;-66
2022/04/18 11:32:34;;;;;;;2.60;2.10;;;;;;;25.80;20.66;101665.13;6339883;22;20042;-66
2022/04/18 11:35:03;;;;;;;4.05;2.40;;;;;;;25.82;20.28;101665.78;6339761;22;20097;-66
2022/04/18 11:37:43;;;;;;;3.47;2.80;;;;;;;25.86;20.66;101672.63;6339443;22;20011;-67
2022/04/18 11:40:12;;;;;;;5.13;3.22;;;;;;;25.85;20.60;101667.28;6339924;22;20038;-67
2022/04/18 11:42:40;;;;;;;5.03;2.90;;;;;;;25.83;20.21;101656.47;6312649;22;20387;-65
2022/04/18 11:45:08;;;;;;;2.50;2.30;;;;;;;25.82;20.12;101668.53;6339856;22;20015;-66
2022/04/18 11:47:41;;;;;;;3.28;2.20;;;;;;;25.87;19.92;101654.19;6339037;22;20456;-65
2022/04/18 11:50:09;;;;;;;3.35;2.78;;;;;;;25.87;20.02;101656.97;6339811;22;20097;-66
2022/04/18 11:52:41;;;;;;;3.70;2.40;;;;;;;25.89;20.10;101660.38;6340052;22;20021;-66
2022/04/18 11:55:14;;;;;;;3.33;2.67;;;;;;;26.02;20.06;101654.22;6338855;22;20014;-67
2022/04/18 11:57:43;;;;;;;2.97;2.38;;;;;;;26.17;20.38;101655.94;6339125;22;20010;-66
2022/04/18 12:06:44;;;;;;;3.00;2.10;;;;;;;26.25;19.86;101652.22;6339277;22;20395;-66
2022/04/18 12:08:37;;;;;;;2.85;2.47;;;;;;;26.43;19.44;101654.59;6339417;22;20090;-65
2022/04/18 12:11:04;;;;;;;3.83;2.65;;;;;;;26.46;19.45;101654.19;6339267;22;20455;-65
2022/04/18 12:13:31;;;;;;;2.97;2.35;;;;;;;26.48;19.49;101641.09;6338198;22;20011;-65
2022/04/18 12:15:59;;;;;;;3.33;2.50;;;;;;;26.53;19.25;101639.44;6339679;22;20450;-64